sensor_id;sensor_type;location;lat;lon;timestamp;pressure;altitude;pressure_sealevel;temperature;humidity
7774;BME280;3931;42.260;23.116;2023-02-28T00:01:30;95866.13;;;16.21;100.00
7774;BME280;3931;42.260;23.116;2023-02-28T00:03:56;95859.59;;;16.05;100.00
7774;BME280;3931;42.260;23.116;2023-02-28T00:06:23;95842.25;;;16.01;100.00
7774;BME280;3931;42.260;23.116;2023-02-28T00:08:49;95832.22;;;15.46;100.00
7774;BME280;3931;42.260;23.116;2023-02-28T00:11:16;95818.66;;;15.75;100.00
7774;BME280;3931;42.260;23.116;2023-02-28T00:13:45;95853.88;;;16.18;100.00
7774;BME280;3931;42.260;23.116;2023-02-28T00:16:14;95873.28;;;16.40;100.00
7774;BME280;3931;42.260;23.116;2023-02-28T00:18:41;95860.84;;;15.95;100.00
7774;BME280;3931;42.260;23.116;2023-02-28T00:21:07;95871.09;;;16.35;100.00
7774;BME280;3931;42.260;23.116;2023-02-28T00:23:34;95865.94;;;15.88;100.00
7774;BME280;3931;42.260;23.116;2023-02-28T00:26:00;95866.13;;;16.12;100.00
7774;BME280;3931;42.260;23.116;2023-02-28T00:28:26;95886.03;;;16.68;100.00
7774;BME280;3931;42.260;23.116;2023-02-28T00:30:53;95882.31;;;16.53;100.00
7774;BME280;3931;42.260;23.116;2023-02-28T00:33:19;95888.03;;;16.40;100.00
7774;BME280;3931;42.260;23.116;2023-02-28T00:35:45;95886.78;;;16.41;100.00
7774;BME280;3931;42.260;23.116;2023-02-28T00:38:11;95880.13;;;16.57;100.00
7774;BME280;3931;42.260;23.116;2023-02-28T00:40:37;95882.94;;;16.57;100.00
7774;BME280;3931;42.260;23.116;2023-02-28T00:43:03;95889.75;;;16.65;100.00
7774;BME280;3931;42.260;23.116;2023-02-28T00:45:29;95879.94;;;16.15;100.00
7774;BME280;3931;42.260;23.116;2023-02-28T00:47:56;95869.81;;;15.90;100.00
7774;BME280;3931;42.260;23.116;2023-02-28T00:50:22;95868.44;;;15.95;100.00
7774;BME280;3931;42.260;23.116;2023-02-28T00:52:48;95876.19;;;15.91;100.00
7774;BME280;3931;42.260;23.116;2023-02-28T00:55:15;95866.19;;;15.32;100.00
7774;BME280;3931;42.260;23.116;2023-02-28T00:57:41;95880.06;;;15.84;100.00
7774;BME280;3931;42.260;23.116;2023-02-28T01:00:08;95878.34;;;15.96;100.00
7774;BME280;3931;42.260;23.116;2023-02-28T01:02:34;95897.16;;;16.23;100.00
7774;BME280;3931;42.260;23.116;2023-02-28T01:05:01;95908.50;;;16.37;98.16
7774;BME280;3931;42.260;23.116;2023-02-28T01:07:27;95889.41;;;16.18;100.00
7774;BME280;3931;42.260;23.116;2023-02-28T01:09:53;95885.66;;;16.12;100.00
7774;BME280;3931;42.260;23.116;2023-02-28T01:12:19;95877.94;;;16.16;100.00
7774;BME280;3931;42.260;23.116;2023-02-28T01:14:45;95891.59;;;16.50;100.00
7774;BME280;3931;42.260;23.116;2023-02-28T01:17:11;95887.56;;;16.42;100.00
7774;BME280;3931;42.260;23.116;2023-02-28T01:19:37;95885.66;;;16.21;100.00
7774;BME280;3931;42.260;23.116;2023-02-28T01:22:05;95882.13;;;16.38;100.00
7774;BME280;3931;42.260;23.116;2023-02-28T01:24:31;95881.19;;;16.23;100.00
7774;BME280;3931;42.260;23.116;2023-02-28T01:26:57;95886.41;;;15.94;100.00
7774;BME280;3931;42.260;23.116;2023-02-28T01:29:23;95867.50;;;15.89;100.00
7774;BME280;3931;42.260;23.116;2023-02-28T01:31:49;95873.53;;;15.96;100.00
7774;BME280;3931;42.260;23.116;2023-02-28T01:34:15;95883.78;;;15.90;100.00
7774;BME280;3931;42.260;23.116;2023-02-28T01:36:41;95871.63;;;15.35;100.00
7774;BME280;3931;42.260;23.116;2023-02-28T01:39:08;95854.22;;;15.22;100.00
7774;BME280;3931;42.260;23.116;2023-02-28T01:41:34;95818.47;;;14.59;100.00
7774;BME280;3931;42.260;23.116;2023-02-28T01:44:04;95811.91;;;14.53;100.00
7774;BME280;3931;42.260;23.116;2023-02-28T01:46:30;95823.84;;;14.85;100.00
7774;BME280;3931;42.260;23.116;2023-02-28T01:49:01;95839.41;;;14.95;100.00
7774;BME280;3931;42.260;23.116;2023-02-28T01:51:32;95841.72;;;14.96;100.00
7774;BME280;3931;42.260;23.116;2023-02-28T01:54:02;95819.69;;;14.89;100.00
7774;BME280;3931;42.260;23.116;2023-02-28T01:56:33;95833.63;;;14.89;100.00
7774;BME280;3931;42.260;23.116;2023-02-28T01:59:02;95866.13;;;15.45;100.00
7774;BME280;3931;42.260;23.116;2023-02-28T02:01:29;95873.09;;;15.49;100.00
7774;BME280;3931;42.260;23.116;2023-02-28T02:03:58;95870.69;;;15.29;100.00
7774;BME280;3931;42.260;23.116;2023-02-28T02:06:27;95870.66;;;15.60;100.00
7774;BME280;3931;42.260;23.116;2023-02-28T02:08:55;95876.91;;;15.73;100.00
7774;BME280;3931;42.260;23.116;2023-02-28T02:11:23;95863.56;;;15.28;100.00
7774;BME280;3931;42.260;23.116;2023-02-28T02:17:04;95891.97;;;15.85;100.00
7774;BME280;3931;42.260;23.116;2023-02-28T02:19:53;95913.16;;;16.22;95.17
7774;BME280;3931;42.260;23.116;2023-02-28T02:22:58;95911.09;;;16.14;94.73
7774;BME280;3931;42.260;23.116;2023-02-28T02:25:35;95900.97;;;15.80;97.36
7774;BME280;3931;42.260;23.116;2023-02-28T02:28:39;95894.91;;;15.81;98.52
7774;BME280;3931;42.260;23.116;2023-02-28T02:34:36;95916.56;;;15.68;98.26
7774;BME280;3931;42.260;23.116;2023-02-28T02:37:13;95907.59;;;15.43;100.00
7774;BME280;3931;42.260;23.116;2023-02-28T02:39:47;95914.09;;;15.40;100.00
7774;BME280;3931;42.260;23.116;2023-02-28T02:42:19;95914.41;;;15.42;100.00
7774;BME280;3931;42.260;23.116;2023-02-28T02:44:50;95910.38;;;15.43;100.00
7774;BME280;3931;42.260;23.116;2023-02-28T02:47:21;95922.16;;;15.38;100.00
7774;BME280;3931;42.260;23.116;2023-02-28T02:49:52;95918.25;;;15.35;100.00
7774;BME280;3931;42.260;23.116;2023-02-28T02:52:24;95921.22;;;15.41;100.00
7774;BME280;3931;42.260;23.116;2023-02-28T02:54:55;95924.84;;;15.19;100.00
7774;BME280;3931;42.260;23.116;2023-02-28T02:57:27;95915.59;;;15.01;100.00
7774;BME280;3931;42.260;23.116;2023-02-28T02:59:56;95929.06;;;15.24;99.52
7774;BME280;3931;42.260;23.116;2023-02-28T03:02:23;95937.66;;;15.17;97.92
7774;BME280;3931;42.260;23.116;2023-02-28T03:04:53;95925.50;;;15.02;100.00
7774;BME280;3931;42.260;23.116;2023-02-28T03:07:26;95924.75;;;14.80;100.00
7774;BME280;3931;42.260;23.116;2023-02-28T03:09:53;95923.41;;;14.93;100.00
7774;BME280;3931;42.260;23.116;2023-02-28T03:12:20;95940.31;;;15.20;100.00
7774;BME280;3931;42.260;23.116;2023-02-28T03:14:55;95935.75;;;14.83;100.00
7774;BME280;3931;42.260;23.116;2023-02-28T03:17:30;95931.22;;;14.77;100.00
7774;BME280;3931;42.260;23.116;2023-02-28T03:20:06;95940.78;;;14.76;100.00
7774;BME280;3931;42.260;23.116;2023-02-28T03:22:42;95963.66;;;14.71;100.00
7774;BME280;3931;42.260;23.116;2023-02-28T03:25:18;95951.59;;;14.74;100.00
7774;BME280;3931;42.260;23.116;2023-02-28T03:27:52;95947.06;;;14.67;100.00
7774;BME280;3931;42.260;23.116;2023-02-28T03:30:26;95939.16;;;14.66;100.00
7774;BME280;3931;42.260;23.116;2023-02-28T03:32:57;95951.94;;;14.76;100.00
7774;BME280;3931;42.260;23.116;2023-02-28T03:35:31;95954.84;;;14.94;100.00
7774;BME280;3931;42.260;23.116;2023-02-28T03:38:03;95970.91;;;15.11;97.80
7774;BME280;3931;42.260;23.116;2023-02-28T03:40:32;95971.63;;;15.03;98.96
7774;BME280;3931;42.260;23.116;2023-02-28T03:43:02;95969.34;;;14.67;98.31
7774;BME280;3931;42.260;23.116;2023-02-28T03:45:32;95960.91;;;14.11;100.00
7774;BME280;3931;42.260;23.116;2023-02-28T03:48:03;95941.66;;;14.17;100.00
7774;BME280;3931;42.260;23.116;2023-02-28T03:50:36;95938.28;;;14.22;100.00
7774;BME280;3931;42.260;23.116;2023-02-28T03:53:07;95937.38;;;14.37;100.00
7774;BME280;3931;42.260;23.116;2023-02-28T03:55:37;95946.81;;;14.40;100.00
7774;BME280;3931;42.260;23.116;2023-02-28T03:58:09;95940.94;;;14.38;100.00
7774;BME280;3931;42.260;23.116;2023-02-28T04:00:40;95948.81;;;14.74;100.00
7774;BME280;3931;42.260;23.116;2023-02-28T04:03:08;95958.75;;;14.75;100.00
7774;BME280;3931;42.260;23.116;2023-02-28T04:05:47;95953.00;;;14.91;99.31
7774;BME280;3931;42.260;23.116;2023-02-28T04:08:15;95951.78;;;14.57;100.00
7774;BME280;3931;42.260;23.116;2023-02-28T04:10:43;95950.28;;;14.44;100.00
7774;BME280;3931;42.260;23.116;2023-02-28T04:13:11;95946.22;;;14.57;100.00
7774;BME280;3931;42.260;23.116;2023-02-28T04:15:37;95932.59;;;14.25;100.00
7774;BME280;3931;42.260;23.116;2023-02-28T04:18:03;95922.69;;;14.24;100.00
7774;BME280;3931;42.260;23.116;2023-02-28T04:20:29;95936.97;;;14.60;100.00
7774;BME280;3931;42.260;23.116;2023-02-28T04:22:55;95932.59;;;14.25;100.00
7774;BME280;3931;42.260;23.116;2023-02-28T04:25:21;95927.31;;;14.52;100.00
7774;BME280;3931;42.260;23.116;2023-02-28T04:27:47;95931.69;;;14.41;100.00
7774;BME280;3931;42.260;23.116;2023-02-28T04:30:14;95929.03;;;14.37;100.00
7774;BME280;3931;42.260;23.116;2023-02-28T04:32:40;95921.94;;;14.24;100.00
7774;BME280;3931;42.260;23.116;2023-02-28T04:35:07;95944.13;;;14.49;100.00
7774;BME280;3931;42.260;23.116;2023-02-28T04:37:33;95927.56;;;14.45;100.00
7774;BME280;3931;42.260;23.116;2023-02-28T04:40:00;95938.41;;;14.18;100.00
7774;BME280;3931;42.260;23.116;2023-02-28T04:42:26;95930.63;;;14.13;100.00
7774;BME280;3931;42.260;23.116;2023-02-28T04:44:52;95938.63;;;14.36;100.00
7774;BME280;3931;42.260;23.116;2023-02-28T04:47:18;95935.94;;;14.33;100.00
7774;BME280;3931;42.260;23.116;2023-02-28T04:49:45;95930.34;;;13.86;100.00
7774;BME280;3931;42.260;23.116;2023-02-28T04:52:11;95937.81;;;13.76;100.00
7774;BME280;3931;42.260;23.116;2023-02-28T04:54:38;95929.56;;;13.98;100.00
7774;BME280;3931;42.260;23.116;2023-02-28T04:57:05;95947.13;;;13.95;100.00
7774;BME280;3931;42.260;23.116;2023-02-28T04:59:31;95939.38;;;13.90;100.00
7774;BME280;3931;42.260;23.116;2023-02-28T05:01:58;95943.50;;;13.60;100.00
7774;BME280;3931;42.260;23.116;2023-02-28T05:04:24;95938.50;;;13.68;100.00
7774;BME280;3931;42.260;23.116;2023-02-28T05:06:50;95925.03;;;13.79;100.00
7774;BME280;3931;42.260;23.116;2023-02-28T05:09:16;95950.06;;;13.79;100.00
7774;BME280;3931;42.260;23.116;2023-02-28T05:11:42;95952.59;;;13.99;100.00
7774;BME280;3931;42.260;23.116;2023-02-28T05:14:11;95954.91;;;14.00;100.00
7774;BME280;3931;42.260;23.116;2023-02-28T05:16:38;95959.47;;;13.81;100.00
7774;BME280;3931;42.260;23.116;2023-02-28T05:19:04;95968.41;;;13.76;100.00
7774;BME280;3931;42.260;23.116;2023-02-28T05:21:32;95958.84;;;13.65;100.00
7774;BME280;3931;42.260;23.116;2023-02-28T05:24:01;95985.19;;;13.98;100.00
7774;BME280;3931;42.260;23.116;2023-02-28T05:26:27;95958.94;;;13.49;100.00
7774;BME280;3931;42.260;23.116;2023-02-28T05:28:54;95964.81;;;13.88;100.00
7774;BME280;3931;42.260;23.116;2023-02-28T05:31:21;95987.38;;;14.28;100.00
7774;BME280;3931;42.260;23.116;2023-02-28T05:33:47;96003.72;;;14.26;100.00
7774;BME280;3931;42.260;23.116;2023-02-28T05:36:14;96012.97;;;14.23;100.00
7774;BME280;3931;42.260;23.116;2023-02-28T05:38:40;96004.31;;;14.21;100.00
7774;BME280;3931;42.260;23.116;2023-02-28T05:41:07;96011.06;;;14.45;100.00
7774;BME280;3931;42.260;23.116;2023-02-28T05:43:33;96025.22;;;14.85;100.00
7774;BME280;3931;42.260;23.116;2023-02-28T05:46:02;96026.19;;;14.57;100.00
7774;BME280;3931;42.260;23.116;2023-02-28T05:48:29;96052.25;;;15.41;97.09
7774;BME280;3931;42.260;23.116;2023-02-28T05:50:57;96061.50;;;15.50;93.21
7774;BME280;3931;42.260;23.116;2023-02-28T05:53:23;96044.56;;;15.23;97.23
7774;BME280;3931;42.260;23.116;2023-02-28T05:55:49;96056.38;;;15.70;92.26
7774;BME280;3931;42.260;23.116;2023-02-28T05:58:15;96070.09;;;15.86;90.90
7774;BME280;3931;42.260;23.116;2023-02-28T06:00:43;96062.03;;;15.58;92.00
7774;BME280;3931;42.260;23.116;2023-02-28T06:03:15;96062.16;;;15.20;95.71
7774;BME280;3931;42.260;23.116;2023-02-28T06:05:41;96059.94;;;14.93;99.46
7774;BME280;3931;42.260;23.116;2023-02-28T06:08:07;96059.38;;;14.98;98.63
7774;BME280;3931;42.260;23.116;2023-02-28T06:10:34;96064.78;;;15.14;98.00
7774;BME280;3931;42.260;23.116;2023-02-28T06:13:00;96065.50;;;14.46;100.00
7774;BME280;3931;42.260;23.116;2023-02-28T06:15:28;96059.28;;;14.89;100.00
7774;BME280;3931;42.260;23.116;2023-02-28T06:17:54;96060.72;;;14.59;100.00
7774;BME280;3931;42.260;23.116;2023-02-28T06:20:22;96073.88;;;14.93;97.50
7774;BME280;3931;42.260;23.116;2023-02-28T06:22:49;96068.03;;;14.79;100.00
7774;BME280;3931;42.260;23.116;2023-02-28T06:25:17;96079.09;;;15.04;98.70
7774;BME280;3931;42.260;23.116;2023-02-28T06:27:43;96079.28;;;14.75;99.06
7774;BME280;3931;42.260;23.116;2023-02-28T06:30:10;96083.03;;;15.15;95.19
7774;BME280;3931;42.260;23.116;2023-02-28T06:32:37;96071.09;;;14.59;100.00
7774;BME280;3931;42.260;23.116;2023-02-28T06:35:03;96074.09;;;14.52;100.00
7774;BME280;3931;42.260;23.116;2023-02-28T06:37:30;96068.75;;;14.45;100.00
7774;BME280;3931;42.260;23.116;2023-02-28T06:39:57;96060.28;;;14.61;100.00
7774;BME280;3931;42.260;23.116;2023-02-28T06:42:23;96060.03;;;14.55;100.00
7774;BME280;3931;42.260;23.116;2023-02-28T06:44:51;96076.41;;;14.53;100.00
7774;BME280;3931;42.260;23.116;2023-02-28T06:47:17;96058.75;;;14.10;100.00
7774;BME280;3931;42.260;23.116;2023-02-28T06:49:43;96059.66;;;14.32;100.00
7774;BME280;3931;42.260;23.116;2023-02-28T06:52:10;96054.84;;;14.07;100.00
7774;BME280;3931;42.260;23.116;2023-02-28T06:54:36;96045.13;;;14.24;100.00
7774;BME280;3931;42.260;23.116;2023-02-28T06:57:03;96058.50;;;14.89;100.00
7774;BME280;3931;42.260;23.116;2023-02-28T06:59:30;96068.19;;;14.37;100.00
7774;BME280;3931;42.260;23.116;2023-02-28T07:01:56;96068.91;;;14.76;100.00
7774;BME280;3931;42.260;23.116;2023-02-28T07:04:22;96074.66;;;14.59;100.00
7774;BME280;3931;42.260;23.116;2023-02-28T07:06:48;96084.72;;;14.79;98.78
7774;BME280;3931;42.260;23.116;2023-02-28T07:09:14;96070.06;;;14.66;99.40
7774;BME280;3931;42.260;23.116;2023-02-28T07:11:40;96073.44;;;14.95;98.95
7774;BME280;3931;42.260;23.116;2023-02-28T07:14:08;96042.47;;;14.21;100.00
7774;BME280;3931;42.260;23.116;2023-02-28T07:16:35;96043.59;;;14.36;100.00
7774;BME280;3931;42.260;23.116;2023-02-28T07:19:01;96045.59;;;13.98;100.00
7774;BME280;3931;42.260;23.116;2023-02-28T07:21:27;96024.03;;;13.89;100.00
7774;BME280;3931;42.260;23.116;2023-02-28T07:23:53;96006.88;;;14.16;100.00
7774;BME280;3931;42.260;23.116;2023-02-28T07:26:20;96010.75;;;14.18;100.00
7774;BME280;3931;42.260;23.116;2023-02-28T07:28:47;96039.66;;;14.58;100.00
7774;BME280;3931;42.260;23.116;2023-02-28T07:31:14;96035.22;;;14.48;100.00
7774;BME280;3931;42.260;23.116;2023-02-28T07:33:41;96047.16;;;14.36;100.00
7774;BME280;3931;42.260;23.116;2023-02-28T07:36:09;96050.72;;;14.49;100.00
7774;BME280;3931;42.260;23.116;2023-02-28T07:38:39;96058.75;;;15.16;100.00
7774;BME280;3931;42.260;23.116;2023-02-28T07:41:05;96069.88;;;15.16;100.00
7774;BME280;3931;42.260;23.116;2023-02-28T07:43:31;96062.28;;;14.95;100.00
7774;BME280;3931;42.260;23.116;2023-02-28T07:46:01;96074.25;;;15.17;99.36
7774;BME280;3931;42.260;23.116;2023-02-28T07:48:29;96082.16;;;15.83;94.04
7774;BME280;3931;42.260;23.116;2023-02-28T07:50:55;96058.56;;;15.32;100.00
7774;BME280;3931;42.260;23.116;2023-02-28T07:53:21;96054.81;;;15.26;100.00
7774;BME280;3931;42.260;23.116;2023-02-28T07:55:47;96073.75;;;15.53;100.00
7774;BME280;3931;42.260;23.116;2023-02-28T07:58:14;96061.13;;;15.05;100.00
7774;BME280;3931;42.260;23.116;2023-02-28T08:00:40;96063.19;;;15.48;100.00
7774;BME280;3931;42.260;23.116;2023-02-28T08:03:07;96056.59;;;15.20;100.00
7774;BME280;3931;42.260;23.116;2023-02-28T08:05:38;96061.41;;;15.41;99.18
7774;BME280;3931;42.260;23.116;2023-02-28T08:08:05;96058.16;;;15.21;100.00
7774;BME280;3931;42.260;23.116;2023-02-28T08:10:31;96054.63;;;15.42;100.00
7774;BME280;3931;42.260;23.116;2023-02-28T08:12:57;96074.53;;;16.45;89.17
7774;BME280;3931;42.260;23.116;2023-02-28T08:15:23;96061.78;;;15.95;97.60
7774;BME280;3931;42.260;23.116;2023-02-28T08:17:49;96076.94;;;16.25;92.11
7774;BME280;3931;42.260;23.116;2023-02-28T08:20:15;96076.53;;;16.05;94.04
7774;BME280;3931;42.260;23.116;2023-02-28T08:22:42;96080.66;;;15.91;91.81
7774;BME280;3931;42.260;23.116;2023-02-28T08:25:08;96076.78;;;16.20;88.81
7774;BME280;3931;42.260;23.116;2023-02-28T08:27:35;96076.50;;;16.66;88.67
7774;BME280;3931;42.260;23.116;2023-02-28T08:30:01;96086.47;;;16.95;85.31
7774;BME280;3931;42.260;23.116;2023-02-28T08:32:28;96088.38;;;17.52;81.19
7774;BME280;3931;42.260;23.116;2023-02-28T08:34:54;96082.31;;;17.54;80.70
7774;BME280;3931;42.260;23.116;2023-02-28T08:37:20;96083.72;;;17.67;80.29
7774;BME280;3931;42.260;23.116;2023-02-28T08:39:47;96081.47;;;18.40;75.40
7774;BME280;3931;42.260;23.116;2023-02-28T08:42:13;96079.16;;;18.39;72.46
7774;BME280;3931;42.260;23.116;2023-02-28T08:44:39;96082.19;;;18.17;78.10
7774;BME280;3931;42.260;23.116;2023-02-28T08:47:05;96083.00;;;17.99;75.30
7774;BME280;3931;42.260;23.116;2023-02-28T08:49:32;96076.31;;;18.80;73.87
7774;BME280;3931;42.260;23.116;2023-02-28T08:51:58;96084.31;;;19.20;71.58
7774;BME280;3931;42.260;23.116;2023-02-28T08:54:24;96083.75;;;18.18;74.08
7774;BME280;3931;42.260;23.116;2023-02-28T08:56:51;96083.81;;;18.33;74.40
7774;BME280;3931;42.260;23.116;2023-02-28T08:59:17;96082.88;;;18.45;75.67
7774;BME280;3931;42.260;23.116;2023-02-28T09:01:43;96080.25;;;17.81;79.80
7774;BME280;3931;42.260;23.116;2023-02-28T09:04:09;96074.72;;;17.54;83.06
7774;BME280;3931;42.260;23.116;2023-02-28T09:06:37;96069.84;;;17.45;88.04
7774;BME280;3931;42.260;23.116;2023-02-28T09:09:03;96078.88;;;18.69;77.63
7774;BME280;3931;42.260;23.116;2023-02-28T09:11:31;96068.66;;;18.57;77.52
7774;BME280;3931;42.260;23.116;2023-02-28T09:13:58;96072.53;;;18.18;78.86
7774;BME280;3931;42.260;23.116;2023-02-28T09:16:25;96068.56;;;18.75;76.45
7774;BME280;3931;42.260;23.116;2023-02-28T09:18:52;96064.09;;;18.92;71.97
7774;BME280;3931;42.260;23.116;2023-02-28T09:21:19;96063.66;;;18.19;76.48
7774;BME280;3931;42.260;23.116;2023-02-28T09:23:47;96059.06;;;18.40;78.21
7774;BME280;3931;42.260;23.116;2023-02-28T09:26:14;96057.16;;;18.13;76.47
7774;BME280;3931;42.260;23.116;2023-02-28T09:28:40;96056.91;;;18.35;78.63
7774;BME280;3931;42.260;23.116;2023-02-28T09:31:12;96053.78;;;18.33;77.52
7774;BME280;3931;42.260;23.116;2023-02-28T09:33:38;96058.31;;;18.96;75.07
7774;BME280;3931;42.260;23.116;2023-02-28T09:36:05;96051.72;;;18.10;77.78
7774;BME280;3931;42.260;23.116;2023-02-28T09:38:31;96041.94;;;19.18;72.95
7774;BME280;3931;42.260;23.116;2023-02-28T09:40:59;96050.19;;;18.74;72.52
7774;BME280;3931;42.260;23.116;2023-02-28T09:43:29;96045.59;;;19.48;70.13
7774;BME280;3931;42.260;23.116;2023-02-28T09:46:02;96047.56;;;19.71;67.96
7774;BME280;3931;42.260;23.116;2023-02-28T09:48:34;96047.22;;;19.40;70.64
7774;BME280;3931;42.260;23.116;2023-02-28T09:51:03;96043.34;;;19.37;69.65
7774;BME280;3931;42.260;23.116;2023-02-28T09:53:32;96045.16;;;20.08;67.04
7774;BME280;3931;42.260;23.116;2023-02-28T09:56:01;96036.31;;;20.00;65.86
7774;BME280;3931;42.260;23.116;2023-02-28T09:58:36;96029.66;;;18.92;70.83
7774;BME280;3931;42.260;23.116;2023-02-28T10:01:10;96022.28;;;19.71;69.02
7774;BME280;3931;42.260;23.116;2023-02-28T10:03:40;96021.34;;;20.53;65.87
7774;BME280;3931;42.260;23.116;2023-02-28T10:06:13;96015.50;;;19.48;68.27
7774;BME280;3931;42.260;23.116;2023-02-28T10:08:45;96018.69;;;20.29;66.90
7774;BME280;3931;42.260;23.116;2023-02-28T10:11:17;96012.97;;;19.80;67.33
7774;BME280;3931;42.260;23.116;2023-02-28T10:13:51;96008.53;;;19.44;67.57
7774;BME280;3931;42.260;23.116;2023-02-28T10:16:23;95997.81;;;19.86;65.73
7774;BME280;3931;42.260;23.116;2023-02-28T10:18:55;95996.84;;;20.39;65.32
7774;BME280;3931;42.260;23.116;2023-02-28T10:21:26;95995.69;;;20.65;65.71
7774;BME280;3931;42.260;23.116;2023-02-28T10:24:02;95992.53;;;20.08;65.64
7774;BME280;3931;42.260;23.116;2023-02-28T10:26:31;95986.03;;;20.17;65.97
7774;BME280;3931;42.260;23.116;2023-02-28T10:28:58;95983.13;;;20.26;64.29
7774;BME280;3931;42.260;23.116;2023-02-28T10:31:24;95973.09;;;19.76;69.17
7774;BME280;3931;42.260;23.116;2023-02-28T10:33:50;95975.03;;;19.40;71.29
7774;BME280;3931;42.260;23.116;2023-02-28T10:36:18;95973.03;;;19.70;70.19
7774;BME280;3931;42.260;23.116;2023-02-28T10:38:45;95963.72;;;19.79;68.88
7774;BME280;3931;42.260;23.116;2023-02-28T10:41:15;95962.94;;;21.23;65.47
7774;BME280;3931;42.260;23.116;2023-02-28T10:43:43;95959.84;;;21.72;62.57
7774;BME280;3931;42.260;23.116;2023-02-28T10:46:13;95953.09;;;21.38;61.53
7774;BME280;3931;42.260;23.116;2023-02-28T10:49:01;95954.84;;;21.56;62.29
7774;BME280;3931;42.260;23.116;2023-02-28T10:51:35;95949.47;;;20.31;66.93
7774;BME280;3931;42.260;23.116;2023-02-28T10:54:02;95951.97;;;21.50;64.82
7774;BME280;3931;42.260;23.116;2023-02-28T10:56:29;95938.53;;;22.28;60.52
7774;BME280;3931;42.260;23.116;2023-02-28T10:58:57;95937.28;;;20.75;59.28
7774;BME280;3931;42.260;23.116;2023-02-28T11:01:26;95931.94;;;19.87;60.84
7774;BME280;3931;42.260;23.116;2023-02-28T11:04:00;95932.16;;;20.18;60.31
7774;BME280;3931;42.260;23.116;2023-02-28T11:06:29;95930.38;;;20.35;59.32
7774;BME280;3931;42.260;23.116;2023-02-28T11:08:58;95925.81;;;20.58;59.48
7774;BME280;3931;42.260;23.116;2023-02-28T11:11:26;95927.56;;;20.35;61.63
7774;BME280;3931;42.260;23.116;2023-02-28T11:13:55;95913.09;;;20.08;63.08
7774;BME280;3931;42.260;23.116;2023-02-28T11:16:22;95918.63;;;20.02;61.03
7774;BME280;3931;42.260;23.116;2023-02-28T11:18:57;95921.75;;;20.39;60.46
7774;BME280;3931;42.260;23.116;2023-02-28T11:21:27;95920.34;;;20.49;60.66
7774;BME280;3931;42.260;23.116;2023-02-28T11:24:00;95911.09;;;19.94;63.68
7774;BME280;3931;42.260;23.116;2023-02-28T11:26:36;95903.97;;;19.78;64.21
7774;BME280;3931;42.260;23.116;2023-02-28T11:29:08;95900.59;;;19.74;64.98
7774;BME280;3931;42.260;23.116;2023-02-28T11:31:36;95902.19;;;19.46;65.63
7774;BME280;3931;42.260;23.116;2023-02-28T11:34:26;95907.50;;;19.44;65.90
7774;BME280;3931;42.260;23.116;2023-02-28T11:36:54;95908.06;;;19.19;66.98
7774;BME280;3931;42.260;23.116;2023-02-28T11:39:22;95907.31;;;19.47;64.68
7774;BME280;3931;42.260;23.116;2023-02-28T11:42:01;95905.38;;;20.03;65.12
7774;BME280;3931;42.260;23.116;2023-02-28T11:44:42;95909.16;;;19.36;67.17
7774;BME280;3931;42.260;23.116;2023-02-28T11:47:13;95903.06;;;20.01;65.27
7774;BME280;3931;42.260;23.116;2023-02-28T11:49:46;95904.53;;;19.82;65.48
7774;BME280;3931;42.260;23.116;2023-02-28T11:52:20;95897.03;;;20.08;63.96
7774;BME280;3931;42.260;23.116;2023-02-28T11:55:07;95892.72;;;20.27;63.31
7774;BME280;3931;42.260;23.116;2023-02-28T11:57:51;95893.78;;;20.70;60.95
7774;BME280;3931;42.260;23.116;2023-02-28T12:00:35;95898.94;;;20.17;65.16
7774;BME280;3931;42.260;23.116;2023-02-28T12:03:15;95886.09;;;19.32;66.40
7774;BME280;3931;42.260;23.116;2023-02-28T12:05:45;95882.78;;;19.33;66.18
7774;BME280;3931;42.260;23.116;2023-02-28T12:08:26;95882.91;;;19.68;64.57
7774;BME280;3931;42.260;23.116;2023-02-28T12:11:00;95875.09;;;19.92;64.90
7774;BME280;3931;42.260;23.116;2023-02-28T12:13:35;95873.00;;;19.00;66.95
7774;BME280;3931;42.260;23.116;2023-02-28T12:16:18;95880.84;;;19.69;64.58
7774;BME280;3931;42.260;23.116;2023-02-28T12:18:56;95884.44;;;19.69;64.48
7774;BME280;3931;42.260;23.116;2023-02-28T12:21:33;95873.66;;;19.82;62.54
7774;BME280;3931;42.260;23.116;2023-02-28T12:24:47;95869.66;;;19.25;66.56
7774;BME280;3931;42.260;23.116;2023-02-28T12:27:20;95859.28;;;19.31;67.00
7774;BME280;3931;42.260;23.116;2023-02-28T12:29:54;95860.97;;;19.08;68.13
7774;BME280;3931;42.260;23.116;2023-02-28T12:32:25;95867.13;;;18.83;68.80
7774;BME280;3931;42.260;23.116;2023-02-28T12:34:56;95858.31;;;19.05;69.78
7774;BME280;3931;42.260;23.116;2023-02-28T12:37:29;95860.66;;;19.35;68.70
7774;BME280;3931;42.260;23.116;2023-02-28T12:40:03;95861.25;;;19.39;67.32
7774;BME280;3931;42.260;23.116;2023-02-28T12:42:34;95859.59;;;19.04;68.92
7774;BME280;3931;42.260;23.116;2023-02-28T12:45:06;95863.28;;;19.39;67.22
7774;BME280;3931;42.260;23.116;2023-02-28T12:47:34;95856.16;;;18.70;70.51
7774;BME280;3931;42.260;23.116;2023-02-28T12:50:04;95853.28;;;18.65;70.08
7774;BME280;3931;42.260;23.116;2023-02-28T12:52:37;95850.88;;;19.02;70.07
7774;BME280;3931;42.260;23.116;2023-02-28T12:55:13;95840.91;;;18.71;70.66
7774;BME280;3931;42.260;23.116;2023-02-28T12:57:45;95849.59;;;18.35;73.38
7774;BME280;3931;42.260;23.116;2023-02-28T13:00:16;95843.81;;;18.39;72.29
7774;BME280;3931;42.260;23.116;2023-02-28T13:05:55;95840.25;;;19.06;70.43
7774;BME280;3931;42.260;23.116;2023-02-28T13:08:46;95828.13;;;18.70;69.38
7774;BME280;3931;42.260;23.116;2023-02-28T13:11:28;95823.50;;;18.82;69.19
7774;BME280;3931;42.260;23.116;2023-02-28T13:14:00;95841.75;;;18.25;71.46
7774;BME280;3931;42.260;23.116;2023-02-28T13:16:27;95836.16;;;18.39;71.05
7774;BME280;3931;42.260;23.116;2023-02-28T13:19:08;95835.66;;;18.64;70.13
7774;BME280;3931;42.260;23.116;2023-02-28T13:21:42;95823.09;;;18.45;71.00
7774;BME280;3931;42.260;23.116;2023-02-28T13:24:09;95838.84;;;18.57;71.89
7774;BME280;3931;42.260;23.116;2023-02-28T13:29:52;95825.44;;;18.76;69.87